sensor_id;sensor_type;location;lat;lon;timestamp;pressure;altitude;pressure_sealevel;temperature;humidity
40920;BME280;26652;50.280;19.026;2023-03-23T00:01:14;97862.72;;;11.95;76.75
40920;BME280;26652;50.280;19.026;2023-03-23T00:03:27;97859.19;;;11.96;76.50
40920;BME280;26652;50.280;19.026;2023-03-23T00:05:43;97853.09;;;11.90;76.78
40920;BME280;26652;50.280;19.026;2023-03-23T00:08:01;97859.41;;;11.88;77.12
40920;BME280;26652;50.280;19.026;2023-03-23T00:10:11;97845.88;;;11.81;77.54
40920;BME280;26652;50.280;19.026;2023-03-23T00:12:25;97848.03;;;11.77;78.10
40920;BME280;26652;50.280;19.026;2023-03-23T00:14:42;97845.47;;;11.64;78.24
40920;BME280;26652;50.280;19.026;2023-03-23T00:16:48;97845.69;;;11.62;78.65
40920;BME280;26652;50.280;19.026;2023-03-23T00:19:04;97846.66;;;11.55;78.56
40920;BME280;26652;50.280;19.026;2023-03-23T00:21:09;97846.06;;;11.59;78.70
40920;BME280;26652;50.280;19.026;2023-03-23T00:23:23;97849.41;;;11.60;78.42
40920;BME280;26652;50.280;19.026;2023-03-23T00:25:30;97851.75;;;11.61;78.59
40920;BME280;26652;50.280;19.026;2023-03-23T00:27:41;97851.94;;;11.60;78.68
40920;BME280;26652;50.280;19.026;2023-03-23T00:29:51;97850.97;;;11.54;79.17
40920;BME280;26652;50.280;19.026;2023-03-23T00:32:02;97850.78;;;11.56;79.05
40920;BME280;26652;50.280;19.026;2023-03-23T00:34:09;97847.44;;;11.55;78.95
40920;BME280;26652;50.280;19.026;2023-03-23T00:36:26;97847.84;;;11.52;79.07
40920;BME280;26652;50.280;19.026;2023-03-23T00:38:32;97848.25;;;11.49;79.51
40920;BME280;26652;50.280;19.026;2023-03-23T00:40:43;97842.56;;;11.47;79.38
40920;BME280;26652;50.280;19.026;2023-03-23T00:42:52;97839.62;;;11.50;79.39
40920;BME280;26652;50.280;19.026;2023-03-23T00:45:06;97835.50;;;11.49;79.10
40920;BME280;26652;50.280;19.026;2023-03-23T00:47:15;97844.75;;;11.43;79.50
40920;BME280;26652;50.280;19.026;2023-03-23T00:49:28;97842.78;;;11.39;80.24
40920;BME280;26652;50.280;19.026;2023-03-23T00:51:36;97847.69;;;11.27;80.82
40920;BME280;26652;50.280;19.026;2023-03-23T00:53:46;97846.31;;;11.25;81.08
40920;BME280;26652;50.280;19.026;2023-03-23T00:55:51;97842.59;;;11.27;81.06
40920;BME280;26652;50.280;19.026;2023-03-23T00:58:09;97847.09;;;11.25;80.94
40920;BME280;26652;50.280;19.026;2023-03-23T01:00:15;97836.91;;;11.25;80.87
40920;BME280;26652;50.280;19.026;2023-03-23T01:02:26;97836.31;;;11.23;80.95
40920;BME280;26652;50.280;19.026;2023-03-23T01:04:38;97832.00;;;11.17;81.43
40920;BME280;26652;50.280;19.026;2023-03-23T01:06:50;97835.94;;;11.13;81.68
40920;BME280;26652;50.280;19.026;2023-03-23T01:08:56;97830.84;;;11.20;81.47
40920;BME280;26652;50.280;19.026;2023-03-23T01:11:08;97823.00;;;11.21;81.11
40920;BME280;26652;50.280;19.026;2023-03-23T01:13:17;97833.19;;;11.21;81.13
40920;BME280;26652;50.280;19.026;2023-03-23T01:15:29;97831.22;;;11.17;81.13
40920;BME280;26652;50.280;19.026;2023-03-23T01:17:39;97820.66;;;11.20;80.99
40920;BME280;26652;50.280;19.026;2023-03-23T01:19:58;97821.63;;;11.25;80.93
40920;BME280;26652;50.280;19.026;2023-03-23T01:22:14;97811.44;;;11.32;79.96
40920;BME280;26652;50.280;19.026;2023-03-23T01:24:24;97817.91;;;11.34;80.20
40920;BME280;26652;50.280;19.026;2023-03-23T01:26:30;97822.41;;;11.39;79.81
40920;BME280;26652;50.280;19.026;2023-03-23T01:28:42;97815.34;;;11.34;79.67
40920;BME280;26652;50.280;19.026;2023-03-23T01:30:50;97823.59;;;11.30;79.69
40920;BME280;26652;50.280;19.026;2023-03-23T01:33:02;97823.19;;;11.33;79.39
40920;BME280;26652;50.280;19.026;2023-03-23T01:35:13;97823.59;;;11.36;79.57
40920;BME280;26652;50.280;19.026;2023-03-23T01:37:23;97820.44;;;11.34;79.66
40920;BME280;26652;50.280;19.026;2023-03-23T01:39:28;97819.81;;;11.45;79.14
40920;BME280;26652;50.280;19.026;2023-03-23T01:41:37;97816.28;;;11.46;79.18
40920;BME280;26652;50.280;19.026;2023-03-23T01:46:28;97815.50;;;11.46;78.84
40920;BME280;26652;50.280;19.026;2023-03-23T01:48:38;97820.25;;;11.42;79.06
40920;BME280;26652;50.280;19.026;2023-03-23T01:51:08;97819.63;;;11.47;79.09
40920;BME280;26652;50.280;19.026;2023-03-23T01:53:14;97812.75;;;11.47;79.09
40920;BME280;26652;50.280;19.026;2023-03-23T01:55:36;97814.16;;;11.43;79.20
40920;BME280;26652;50.280;19.026;2023-03-23T01:57:47;97804.16;;;11.42;79.00
40920;BME280;26652;50.280;19.026;2023-03-23T02:00:02;97812.81;;;11.34;79.27
40920;BME280;26652;50.280;19.026;2023-03-23T02:02:22;97806.13;;;11.33;79.47
40920;BME280;26652;50.280;19.026;2023-03-23T02:04:32;97805.16;;;11.34;80.05
40920;BME280;26652;50.280;19.026;2023-03-23T02:06:38;97806.72;;;11.35;79.65
40920;BME280;26652;50.280;19.026;2023-03-23T02:08:51;97792.22;;;11.23;79.81
40920;BME280;26652;50.280;19.026;2023-03-23T02:10:57;97793.22;;;11.28;79.96
40920;BME280;26652;50.280;19.026;2023-03-23T02:13:13;97793.41;;;11.27;79.94
40920;BME280;26652;50.280;19.026;2023-03-23T02:15:19;97794.00;;;11.16;80.31
40920;BME280;26652;50.280;19.026;2023-03-23T02:17:37;97790.47;;;11.17;80.21
40920;BME280;26652;50.280;19.026;2023-03-23T02:20:06;97794.78;;;11.23;79.97
40920;BME280;26652;50.280;19.026;2023-03-23T02:22:48;97802.41;;;11.23;80.21
40920;BME280;26652;50.280;19.026;2023-03-23T02:25:09;97794.00;;;11.22;81.01
40920;BME280;26652;50.280;19.026;2023-03-23T02:28:01;97795.97;;;11.20;80.93
40920;BME280;26652;50.280;19.026;2023-03-23T02:31:16;97794.59;;;11.24;80.78
40920;BME280;26652;50.280;19.026;2023-03-23T02:36:08;97792.03;;;11.31;79.74
40920;BME280;26652;50.280;19.026;2023-03-23T02:38:18;97786.53;;;11.27;79.99
40920;BME280;26652;50.280;19.026;2023-03-23T02:40:41;97784.00;;;11.27;79.69
40920;BME280;26652;50.280;19.026;2023-03-23T02:42:53;97782.03;;;11.23;79.72
40920;BME280;26652;50.280;19.026;2023-03-23T02:45:04;97772.25;;;11.20;80.19
40920;BME280;26652;50.280;19.026;2023-03-23T02:47:23;97780.66;;;11.20;80.83
40920;BME280;26652;50.280;19.026;2023-03-23T02:49:34;97773.22;;;11.19;80.87
40920;BME280;26652;50.280;19.026;2023-03-23T02:51:47;97775.78;;;11.25;80.41
40920;BME280;26652;50.280;19.026;2023-03-23T02:53:54;97773.63;;;11.22;nan
40920;BME280;26652;50.280;19.026;2023-03-23T02:56:08;97775.00;;;11.25;80.24
40920;BME280;26652;50.280;19.026;2023-03-23T02:58:15;97775.19;;;11.30;79.86
40920;BME280;26652;50.280;19.026;2023-03-23T03:00:30;97778.91;;;11.27;79.71
40920;BME280;26652;50.280;19.026;2023-03-23T03:02:42;97782.63;;;11.31;79.40
40920;BME280;26652;50.280;19.026;2023-03-23T03:07:47;97782.44;;;11.26;79.99
40920;BME280;26652;50.280;19.026;2023-03-23T03:10:17;97770.09;;;11.23;80.53
40920;BME280;26652;50.280;19.026;2023-03-23T03:12:58;97774.41;;;11.16;81.18
40920;BME280;26652;50.280;19.026;2023-03-23T03:17:20;97764.41;;;11.28;79.68
40920;BME280;26652;50.280;19.026;2023-03-23T03:19:37;97755.00;;;11.15;80.62
40920;BME280;26652;50.280;19.026;2023-03-23T03:21:49;97758.53;;;11.14;81.33
40920;BME280;26652;50.280;19.026;2023-03-23T03:24:03;97758.16;;;11.17;80.94
40920;BME280;26652;50.280;19.026;2023-03-23T03:26:12;97758.94;;;11.18;80.54
40920;BME280;26652;50.280;19.026;2023-03-23T03:28:26;97750.31;;;11.19;80.27
40920;BME280;26652;50.280;19.026;2023-03-23T03:30:33;97752.25;;;11.17;80.61
40920;BME280;26652;50.280;19.026;2023-03-23T03:32:49;97754.63;;;11.11;80.68
40920;BME280;26652;50.280;19.026;2023-03-23T03:35:00;97755.59;;;11.10;81.86
40920;BME280;26652;50.280;19.026;2023-03-23T03:37:09;97751.87;;;11.13;81.91
40920;BME280;26652;50.280;19.026;2023-03-23T03:39:15;97758.16;;;11.10;81.73
40920;BME280;26652;50.280;19.026;2023-03-23T03:41:31;97757.16;;;11.11;81.13
40920;BME280;26652;50.280;19.026;2023-03-23T03:43:36;97738.75;;;11.09;80.51
40920;BME280;26652;50.280;19.026;2023-03-23T03:45:57;97752.66;;;11.13;80.48
40920;BME280;26652;50.280;19.026;2023-03-23T03:48:07;97746.97;;;11.11;80.95
40920;BME280;26652;50.280;19.026;2023-03-23T03:50:19;97750.13;;;11.13;80.97
40920;BME280;26652;50.280;19.026;2023-03-23T03:52:27;97758.16;;;11.10;81.41
40920;BME280;26652;50.280;19.026;2023-03-23T03:54:41;97765.41;;;11.13;80.70
40920;BME280;26652;50.280;19.026;2023-03-23T03:56:50;97758.34;;;11.09;80.34
40920;BME280;26652;50.280;19.026;2023-03-23T03:59:07;97754.22;;;10.95;80.60
40920;BME280;26652;50.280;19.026;2023-03-23T04:01:12;97769.31;;;11.16;80.38
40920;BME280;26652;50.280;19.026;2023-03-23T04:03:22;97765.38;;;11.20;79.92
40920;BME280;26652;50.280;19.026;2023-03-23T04:05:31;97767.34;;;11.18;79.96
40920;BME280;26652;50.280;19.026;2023-03-23T04:07:43;97763.62;;;11.14;80.28
40920;BME280;26652;50.280;19.026;2023-03-23T04:09:55;97771.84;;;11.16;79.69
40920;BME280;26652;50.280;19.026;2023-03-23T04:12:12;97764.81;;;11.18;79.67
40920;BME280;26652;50.280;19.026;2023-03-23T04:14:16;97764.59;;;11.13;79.76
40920;BME280;26652;50.280;19.026;2023-03-23T04:16:26;97766.56;;;11.18;79.59
40920;BME280;26652;50.280;19.026;2023-03-23T04:18:36;97761.28;;;11.19;79.54
40920;BME280;26652;50.280;19.026;2023-03-23T04:20:51;97763.62;;;11.21;79.42
40920;BME280;26652;50.280;19.026;2023-03-23T04:23:03;97763.62;;;11.14;79.49
40920;BME280;26652;50.280;19.026;2023-03-23T04:25:23;97758.94;;;11.04;79.07
40920;BME280;26652;50.280;19.026;2023-03-23T04:27:39;97750.31;;;10.99;79.48
40920;BME280;26652;50.280;19.026;2023-03-23T04:29:52;97751.09;;;10.99;79.52
40920;BME280;26652;50.280;19.026;2023-03-23T04:31:57;97751.09;;;10.99;79.54
40920;BME280;26652;50.280;19.026;2023-03-23T04:34:09;97753.44;;;10.94;79.54
40920;BME280;26652;50.280;19.026;2023-03-23T04:36:19;97745.63;;;10.96;79.68
40920;BME280;26652;50.280;19.026;2023-03-23T04:38:29;97748.75;;;10.98;79.85
40920;BME280;26652;50.280;19.026;2023-03-23T04:40:45;97749.53;;;10.98;79.74
40920;BME280;26652;50.280;19.026;2023-03-23T04:42:56;97747.38;;;10.95;80.06
40920;BME280;26652;50.280;19.026;2023-03-23T04:45:09;97747.00;;;10.92;80.05
40920;BME280;26652;50.280;19.026;2023-03-23T04:47:26;97751.69;;;10.88;80.15
40920;BME280;26652;50.280;19.026;2023-03-23T04:49:36;97754.03;;;10.83;80.64
40920;BME280;26652;50.280;19.026;2023-03-23T04:51:49;97750.72;;;10.82;80.28
40920;BME280;26652;50.280;19.026;2023-03-23T04:53:57;97756.59;;;10.83;nan
40920;BME280;26652;50.280;19.026;2023-03-23T04:56:12;97760.91;;;10.89;80.39
40920;BME280;26652;50.280;19.026;2023-03-23T04:58:22;97754.03;;;10.90;79.96
40920;BME280;26652;50.280;19.026;2023-03-23T05:00:37;97760.31;;;10.94;79.17
40920;BME280;26652;50.280;19.026;2023-03-23T05:02:52;97757.75;;;10.94;79.74
40920;BME280;26652;50.280;19.026;2023-03-23T05:05:02;97758.94;;;11.11;78.87
40920;BME280;26652;50.280;19.026;2023-03-23T05:07:08;97767.34;;;11.11;78.22
40920;BME280;26652;50.280;19.026;2023-03-23T05:09:19;97756.56;;;11.16;77.97
40920;BME280;26652;50.280;19.026;2023-03-23T05:11:34;97761.06;;;11.21;77.31
40920;BME280;26652;50.280;19.026;2023-03-23T05:13:44;97766.38;;;11.19;77.23
40920;BME280;26652;50.280;19.026;2023-03-23T05:15:53;97758.91;;;11.24;77.22
40920;BME280;26652;50.280;19.026;2023-03-23T05:18:01;97758.72;;;11.32;76.65
40920;BME280;26652;50.280;19.026;2023-03-23T05:20:07;97744.78;;;11.35;76.76
40920;BME280;26652;50.280;19.026;2023-03-23T05:22:27;97750.41;;;11.50;75.85
40920;BME280;26652;50.280;19.026;2023-03-23T05:24:37;97756.47;;;11.56;75.54
40920;BME280;26652;50.280;19.026;2023-03-23T05:26:46;97757.06;;;11.58;75.11
40920;BME280;26652;50.280;19.026;2023-03-23T05:29:04;97748.62;;;11.64;74.79
40920;BME280;26652;50.280;19.026;2023-03-23T05:31:18;97759.19;;;11.67;74.68
40920;BME280;26652;50.280;19.026;2023-03-23T05:33:23;97759.38;;;11.79;74.10
40920;BME280;26652;50.280;19.026;2023-03-23T05:35:38;97758.75;;;11.90;73.64
40920;BME280;26652;50.280;19.026;2023-03-23T05:37:45;97761.47;;;12.02;72.83
40920;BME280;26652;50.280;19.026;2023-03-23T05:39:55;97759.87;;;12.07;72.92
40920;BME280;26652;50.280;19.026;2023-03-23T05:42:03;97763.56;;;12.11;72.24
40920;BME280;26652;50.280;19.026;2023-03-23T05:44:23;97764.12;;;12.20;72.19
40920;BME280;26652;50.280;19.026;2023-03-23T05:46:27;97759.81;;;12.21;71.59
40920;BME280;26652;50.280;19.026;2023-03-23T05:49:01;97749.81;;;12.19;71.37
40920;BME280;26652;50.280;19.026;2023-03-23T05:51:16;97762.09;;;12.35;71.17
40920;BME280;26652;50.280;19.026;2023-03-23T05:53:32;97757.75;;;12.36;72.62
40920;BME280;26652;50.280;19.026;2023-03-23T05:55:39;97774.28;;;12.58;70.43
40920;BME280;26652;50.280;19.026;2023-03-23T05:57:51;97770.78;;;12.53;69.93
40920;BME280;26652;50.280;19.026;2023-03-23T06:00:06;97769.44;;;12.50;70.96
40920;BME280;26652;50.280;19.026;2023-03-23T06:02:28;97772.31;;;12.60;70.31
40920;BME280;26652;50.280;19.026;2023-03-23T06:04:44;97772.28;;;12.67;70.18
40920;BME280;26652;50.280;19.026;2023-03-23T06:06:56;97768.84;;;12.80;69.37
40920;BME280;26652;50.280;19.026;2023-03-23T06:09:02;97767.66;;;12.82;68.87
40920;BME280;26652;50.280;19.026;2023-03-23T06:11:09;97778.59;;;12.89;69.88
40920;BME280;26652;50.280;19.026;2023-03-23T06:13:14;97781.09;;;12.96;68.67
40920;BME280;26652;50.280;19.026;2023-03-23T06:15:29;97774.53;;;13.06;68.54
40920;BME280;26652;50.280;19.026;2023-03-23T06:17:37;97770.06;;;13.27;68.02
40920;BME280;26652;50.280;19.026;2023-03-23T06:19:51;97764.75;;;13.28;67.29
40920;BME280;26652;50.280;19.026;2023-03-23T06:22:06;97760.69;;;13.21;66.95
40920;BME280;26652;50.280;19.026;2023-03-23T06:24:16;97752.81;;;13.22;66.63
40920;BME280;26652;50.280;19.026;2023-03-23T06:26:40;97763.19;;;13.27;67.48
40920;BME280;26652;50.280;19.026;2023-03-23T06:28:52;97761.84;;;13.25;67.63
40920;BME280;26652;50.280;19.026;2023-03-23T06:31:03;97763.53;;;13.31;66.58
40920;BME280;26652;50.280;19.026;2023-03-23T06:33:13;97759.38;;;13.36;66.76
40920;BME280;26652;50.280;19.026;2023-03-23T06:35:18;97767.47;;;13.52;66.16
40920;BME280;26652;50.280;19.026;2023-03-23T06:37:27;97758.34;;;13.56;66.26
40920;BME280;26652;50.280;19.026;2023-03-23T06:39:35;97766.94;;;13.80;65.90
40920;BME280;26652;50.280;19.026;2023-03-23T06:41:49;97766.16;;;13.79;65.02
40920;BME280;26652;50.280;19.026;2023-03-23T06:43:58;97765.97;;;13.81;65.15
40920;BME280;26652;50.280;19.026;2023-03-23T06:46:08;97761.84;;;13.80;64.64
40920;BME280;26652;50.280;19.026;2023-03-23T06:48:20;97777.59;;;13.77;65.03
40920;BME280;26652;50.280;19.026;2023-03-23T06:50:44;97770.78;;;13.70;65.25
40920;BME280;26652;50.280;19.026;2023-03-23T06:52:50;97767.25;;;13.71;64.36
40920;BME280;26652;50.280;19.026;2023-03-23T06:55:04;97773.19;;;13.84;64.52
40920;BME280;26652;50.280;19.026;2023-03-23T06:57:11;97781.09;;;13.82;64.80
40920;BME280;26652;50.280;19.026;2023-03-23T06:59:23;97778.31;;;13.84;64.44
40920;BME280;26652;50.280;19.026;2023-03-23T07:01:29;97774.28;;;13.76;64.01
40920;BME280;26652;50.280;19.026;2023-03-23T07:03:51;97777.09;;;13.86;63.84
40920;BME280;26652;50.280;19.026;2023-03-23T07:06:19;97775.47;;;13.92;64.39
40920;BME280;26652;50.280;19.026;2023-03-23T07:08:26;97775.47;;;13.92;64.33
40920;BME280;26652;50.280;19.026;2023-03-23T07:10:59;97783.84;;;13.99;63.22
40920;BME280;26652;50.280;19.026;2023-03-23T07:13:13;97782.09;;;13.81;63.70
40920;BME280;26652;50.280;19.026;2023-03-23T07:15:23;97774.41;;;13.81;63.66
40920;BME280;26652;50.280;19.026;2023-03-23T07:17:40;97772.12;;;13.73;63.89
40920;BME280;26652;50.280;19.026;2023-03-23T07:19:58;97783.37;;;13.72;63.80
40920;BME280;26652;50.280;19.026;2023-03-23T07:22:08;97779.25;;;13.71;63.88
40920;BME280;26652;50.280;19.026;2023-03-23T07:24:20;97782.00;;;13.69;63.99
40920;BME280;26652;50.280;19.026;2023-03-23T07:26:26;97787.47;;;13.73;64.46
40920;BME280;26652;50.280;19.026;2023-03-23T07:28:51;97783.66;;;13.64;64.46
40920;BME280;26652;50.280;19.026;2023-03-23T07:31:00;97786.69;;;13.72;63.95
40920;BME280;26652;50.280;19.026;2023-03-23T07:33:14;97780.38;;;13.75;63.77
40920;BME280;26652;50.280;19.026;2023-03-23T07:35:20;97785.63;;;13.80;63.88
40920;BME280;26652;50.280;19.026;2023-03-23T07:37:43;97791.47;;;13.87;63.73
40920;BME280;26652;50.280;19.026;2023-03-23T07:39:56;97789.91;;;13.86;64.35
40920;BME280;26652;50.280;19.026;2023-03-23T07:42:17;97787.75;;;14.01;63.76
40920;BME280;26652;50.280;19.026;2023-03-23T07:44:26;97792.72;;;14.15;63.41
40920;BME280;26652;50.280;19.026;2023-03-23T07:46:48;97805.00;;;14.24;62.79
40920;BME280;26652;50.280;19.026;2023-03-23T07:48:59;97807.56;;;14.24;62.39
40920;BME280;26652;50.280;19.026;2023-03-23T07:51:18;97801.28;;;14.38;62.21
40920;BME280;26652;50.280;19.026;2023-03-23T07:53:23;97801.50;;;14.37;61.93
40920;BME280;26652;50.280;19.026;2023-03-23T07:55:32;97795.69;;;14.30;62.14
40920;BME280;26652;50.280;19.026;2023-03-23T07:57:41;97792.03;;;14.37;62.08
40920;BME280;26652;50.280;19.026;2023-03-23T07:59:54;97794.25;;;14.52;61.55
40920;BME280;26652;50.280;19.026;2023-03-23T08:01:58;97798.75;;;14.80;61.19
40920;BME280;26652;50.280;19.026;2023-03-23T08:04:10;97783.37;;;14.80;60.66
40920;BME280;26652;50.280;19.026;2023-03-23T08:06:15;97792.44;;;15.06;59.64
40920;BME280;26652;50.280;19.026;2023-03-23T08:08:26;97795.44;;;15.15;59.67
40920;BME280;26652;50.280;19.026;2023-03-23T08:10:38;97787.75;;;15.15;59.44
40920;BME280;26652;50.280;19.026;2023-03-23T08:12:57;97796.34;;;15.09;59.79
40920;BME280;26652;50.280;19.026;2023-03-23T08:15:09;97790.31;;;15.03;59.88
40920;BME280;26652;50.280;19.026;2023-03-23T08:17:17;97795.78;;;15.18;59.40
40920;BME280;26652;50.280;19.026;2023-03-23T08:19:30;97793.31;;;15.12;59.22
40920;BME280;26652;50.280;19.026;2023-03-23T08:21:50;97782.25;;;14.88;59.39
40920;BME280;26652;50.280;19.026;2023-03-23T08:24:04;97796.44;;;15.02;59.16
40920;BME280;26652;50.280;19.026;2023-03-23T08:26:23;97788.31;;;15.52;58.15
40920;BME280;26652;50.280;19.026;2023-03-23T08:28:51;97780.09;;;16.30;56.37
40920;BME280;26652;50.280;19.026;2023-03-23T08:31:06;97784.34;;;17.37;53.29
40920;BME280;26652;50.280;19.026;2023-03-23T08:33:11;97784.56;;;18.44;50.75
40920;BME280;26652;50.280;19.026;2023-03-23T08:35:20;97785.53;;;19.39;48.70
40920;BME280;26652;50.280;19.026;2023-03-23T08:37:30;97790.72;;;19.39;47.57
40920;BME280;26652;50.280;19.026;2023-03-23T08:39:41;97785.09;;;18.73;48.40
40920;BME280;26652;50.280;19.026;2023-03-23T08:41:54;97783.59;;;19.14;47.96
40920;BME280;26652;50.280;19.026;2023-03-23T08:44:08;97786.88;;;18.73;48.84
40920;BME280;26652;50.280;19.026;2023-03-23T08:46:17;97785.50;;;18.92;48.60
40920;BME280;26652;50.280;19.026;2023-03-23T08:48:29;97794.50;;;18.89;48.79
40920;BME280;26652;50.280;19.026;2023-03-23T08:50:39;97787.75;;;19.20;48.07
40920;BME280;26652;50.280;19.026;2023-03-23T08:53:03;97788.47;;;18.79;48.81
40920;BME280;26652;50.280;19.026;2023-03-23T08:55:36;97786.38;;;19.08;48.61
40920;BME280;26652;50.280;19.026;2023-03-23T08:57:57;97784.94;;;19.64;47.52
40920;BME280;26652;50.280;19.026;2023-03-23T09:00:30;97781.69;;;19.42;47.42
40920;BME280;26652;50.280;19.026;2023-03-23T09:02:41;97781.56;;;18.84;48.07
40920;BME280;26652;50.280;19.026;2023-03-23T09:05:05;97775.59;;;18.79;48.10
40920;BME280;26652;50.280;19.026;2023-03-23T09:07:18;97777.63;;;18.72;48.91
40920;BME280;26652;50.280;19.026;2023-03-23T09:09:26;97780.22;;;18.77;49.50
40920;BME280;26652;50.280;19.026;2023-03-23T09:11:39;97778.00;;;18.90;48.51
40920;BME280;26652;50.280;19.026;2023-03-23T09:13:46;97782.31;;;18.53;48.66
40920;BME280;26652;50.280;19.026;2023-03-23T09:16:00;97782.31;;;18.26;48.75
40920;BME280;26652;50.280;19.026;2023-03-23T09:18:05;97774.66;;;18.31;49.06
40920;BME280;26652;50.280;19.026;2023-03-23T09:20:16;97784.09;;;18.79;48.09
40920;BME280;26652;50.280;19.026;2023-03-23T09:22:33;97771.53;;;19.25;47.20
40920;BME280;26652;50.280;19.026;2023-03-23T09:24:45;97776.53;;;19.42;46.35
40920;BME280;26652;50.280;19.026;2023-03-23T09:26:49;97783.16;;;19.27;46.63
40920;BME280;26652;50.280;19.026;2023-03-23T09:28:58;97776.94;;;19.23;46.79
40920;BME280;26652;50.280;19.026;2023-03-23T09:31:07;97782.28;;;19.12;46.44
40920;BME280;26652;50.280;19.026;2023-03-23T09:33:17;97776.53;;;19.00;46.68
40920;BME280;26652;50.280;19.026;2023-03-23T09:35:22;97780.56;;;19.27;46.65
40920;BME280;26652;50.280;19.026;2023-03-23T09:37:31;97792.47;;;19.34;46.51
40920;BME280;26652;50.280;19.026;2023-03-23T09:39:44;97780.09;;;18.93;46.35
40920;BME280;26652;50.280;19.026;2023-03-23T09:42:44;97786.16;;;18.77;47.81
40920;BME280;26652;50.280;19.026;2023-03-23T09:47:38;97776.53;;;19.00;47.57
40920;BME280;26652;50.280;19.026;2023-03-23T09:49:56;97791.97;;;18.94;46.88
40920;BME280;26652;50.280;19.026;2023-03-23T09:52:36;97781.81;;;18.83;47.49
40920;BME280;26652;50.280;19.026;2023-03-23T09:54:50;97779.62;;;18.65;47.21
40920;BME280;26652;50.280;19.026;2023-03-23T09:57:02;97775.37;;;18.85;47.25
40920;BME280;26652;50.280;19.026;2023-03-23T09:59:26;97775.81;;;19.09;47.72
40920;BME280;26652;50.280;19.026;2023-03-23T10:01:50;97776.94;;;19.23;46.34
40920;BME280;26652;50.280;19.026;2023-03-23T10:06:38;97755.97;;;19.52;45.45
40920;BME280;26652;50.280;19.026;2023-03-23T10:08:47;97751.44;;;19.95;46.09
40920;BME280;26652;50.280;19.026;2023-03-23T10:13:52;97777.13;;;20.32;44.03
40920;BME280;26652;50.280;19.026;2023-03-23T10:16:07;97755.06;;;19.99;44.18
40920;BME280;26652;50.280;19.026;2023-03-23T10:21:14;97741.50;;;20.49;43.09
40920;BME280;26652;50.280;19.026;2023-03-23T10:26:01;97750.03;;;20.65;41.80
40920;BME280;26652;50.280;19.026;2023-03-23T10:28:11;97738.37;;;20.72;41.58
40920;BME280;26652;50.280;19.026;2023-03-23T10:30:26;97732.91;;;20.94;41.89
40920;BME280;26652;50.280;19.026;2023-03-23T10:33:18;97735.72;;;21.13;40.14
40920;BME280;26652;50.280;19.026;2023-03-23T10:36:00;97744.28;;;20.93;39.53
40920;BME280;26652;50.280;19.026;2023-03-23T10:38:06;97734.00;;;20.47;40.94
40920;BME280;26652;50.280;19.026;2023-03-23T10:40:22;97735.38;;;19.77;40.16
40920;BME280;26652;50.280;19.026;2023-03-23T10:42:38;97723.50;;;19.71;40.67
40920;BME280;26652;50.280;19.026;2023-03-23T10:44:50;97727.75;;;19.45;41.97
40920;BME280;26652;50.280;19.026;2023-03-23T10:47:07;97720.94;;;19.24;42.57
40920;BME280;26652;50.280;19.026;2023-03-23T10:49:25;97734.22;;;19.01;42.83
40920;BME280;26652;50.280;19.026;2023-03-23T10:51:40;97733.81;;;18.77;43.02
40920;BME280;26652;50.280;19.026;2023-03-23T10:53:58;97740.72;;;18.66;43.55
40920;BME280;26652;50.280;19.026;2023-03-23T10:56:17;97733.03;;;18.76;44.07
40920;BME280;26652;50.280;19.026;2023-03-23T10:58:34;97748.88;;;18.58;44.38
40920;BME280;26652;50.280;19.026;2023-03-23T11:00:45;97742.69;;;18.59;44.51
40920;BME280;26652;50.280;19.026;2023-03-23T11:03:23;97752.81;;;18.66;44.96
40920;BME280;26652;50.280;19.026;2023-03-23T11:05:51;97750.19;;;18.34;44.86
40920;BME280;26652;50.280;19.026;2023-03-23T11:08:03;97740.53;;;18.19;45.48
40920;BME280;26652;50.280;19.026;2023-03-23T11:10:23;97746.69;;;18.18;46.02
40920;BME280;26652;50.280;19.026;2023-03-23T11:12:37;97750.06;;;18.18;45.58
40920;BME280;26652;50.280;19.026;2023-03-23T11:14:42;97759.22;;;18.09;46.52
40920;BME280;26652;50.280;19.026;2023-03-23T11:16:55;97753.84;;;18.11;46.29
40920;BME280;26652;50.280;19.026;2023-03-23T11:19:31;97760.25;;;18.08;46.81
40920;BME280;26652;50.280;19.026;2023-03-23T11:22:08;97754.25;;;18.03;46.67
40920;BME280;26652;50.280;19.026;2023-03-23T11:24:46;97756.38;;;17.84;46.56
40920;BME280;26652;50.280;19.026;2023-03-23T11:26:56;97745.06;;;17.63;47.27
40920;BME280;26652;50.280;19.026;2023-03-23T11:29:17;97734.09;;;17.68;47.42
40920;BME280;26652;50.280;19.026;2023-03-23T11:31:33;97763.81;;;17.80;47.55
40920;BME280;26652;50.280;19.026;2023-03-23T11:34:00;97755.91;;;17.65;47.23
40920;BME280;26652;50.280;19.026;2023-03-23T11:36:55;97751.59;;;17.71;46.94
40920;BME280;26652;50.280;19.026;2023-03-23T11:40:15;97739.69;;;17.64;47.75
40920;BME280;26652;50.280;19.026;2023-03-23T11:42:13;97748.59;;;17.57;47.18
40920;BME280;26652;50.280;19.026;2023-03-23T11:44:34;97747.50;;;17.53;47.66
40920;BME280;26652;50.280;19.026;2023-03-23T11:50:20;97745.31;;;17.61;47.66
40920;BME280;26652;50.280;19.026;2023-03-23T11:53:10;97735.13;;;17.72;47.91
40920;BME280;26652;50.280;19.026;2023-03-23T11:55:09;97738.06;;;17.80;48.29
40920;BME280;26652;50.280;19.026;2023-03-23T11:57:41;97744.41;;;17.73;47.72
40920;BME280;26652;50.280;19.026;2023-03-23T11:59:58;97730.75;;;17.72;47.56
40920;BME280;26652;50.280;19.026;2023-03-23T12:02:37;97728.28;;;17.82;47.63
40920;BME280;26652;50.280;19.026;2023-03-23T12:07:46;97731.88;;;18.03;47.03
40920;BME280;26652;50.280;19.026;2023-03-23T12:10:32;97722.09;;;18.32;47.47
40920;BME280;26652;50.280;19.026;2023-03-23T12:13:17;97723.16;;;18.36;46.33
40920;BME280;26652;50.280;19.026;2023-03-23T12:16:28;97734.88;;;18.22;46.50